createdAt,value
2023-03-05T00:00:54.784Z,95977.47
2023-03-05T00:05:57.069Z,95980.38
2023-03-05T00:11:00.373Z,95973.81
2023-03-05T00:16:06.951Z,95977.66
2023-03-05T00:21:21.851Z,95964.41
2023-03-05T00:26:25.833Z,95964.41
2023-03-05T00:31:29.953Z,95958.63
2023-03-05T00:36:32.237Z,95967.13
2023-03-05T00:41:33.793Z,95974.22
2023-03-05T00:46:35.926Z,95965.72
2023-03-05T00:51:37.454Z,95971.03
2023-03-05T00:56:38.992Z,95963.28
2023-03-05T01:01:40.621Z,95954.44
2023-03-05T01:06:42.214Z,95947.81
2023-03-05T01:11:43.697Z,95939.19
2023-03-05T01:16:45.504Z,95937.81
2023-03-05T01:21:48.117Z,95936.13
2023-03-05T01:26:49.897Z,95927.66
2023-03-05T01:31:51.374Z,95912.41
2023-03-05T01:36:53.322Z,95904.44
2023-03-05T01:41:54.819Z,95898.25
2023-03-05T01:46:56.488Z,95894.34
2023-03-05T01:52:07.026Z,95899.75
2023-03-05T01:57:22.905Z,95896.03
2023-03-05T02:02:25.339Z,95882.03
2023-03-05T02:07:27.159Z,95872.69
2023-03-05T02:12:28.680Z,95878.84
2023-03-05T02:17:30.531Z,95873.16
2023-03-05T02:22:32.041Z,95855.25
2023-03-05T02:27:33.854Z,95855.63
2023-03-05T02:32:35.371Z,95853.56
2023-03-05T02:37:37.044Z,95847.59
2023-03-05T02:42:39.065Z,95846.38
2023-03-05T02:47:41.190Z,95846.31
2023-03-05T02:52:43.636Z,95840.72
2023-03-05T02:57:49.116Z,95831.09
2023-03-05T03:02:50.669Z,95826.25
2023-03-05T03:07:52.163Z,95822.06
2023-03-05T03:12:53.626Z,95816.66
2023-03-05T03:17:55.466Z,95810.69
2023-03-05T03:22:56.912Z,95813.13
2023-03-05T03:27:58.418Z,95800.81
2023-03-05T03:32:59.878Z,95796.25
2023-03-05T03:38:01.563Z,95799.69
2023-03-05T03:43:03.228Z,95788.25
2023-03-05T03:48:04.846Z,95776.78
2023-03-05T03:53:07.065Z,95773.53
2023-03-05T03:58:09.162Z,95774.28
2023-03-05T04:03:10.609Z,95771.47
2023-03-05T04:08:12.148Z,95766.44
2023-03-05T04:13:13.686Z,95754.69
2023-03-05T04:18:15.128Z,95753.38
2023-03-05T04:23:16.856Z,95744.69
2023-03-05T04:28:18.324Z,95739.66
2023-03-05T04:33:20.019Z,95735.19
2023-03-05T04:38:21.937Z,95732.97
2023-03-05T04:43:23.484Z,95735.00
2023-03-05T04:48:25.753Z,95729.84
2023-03-05T04:53:27.279Z,95726.16
2023-03-05T04:58:29.146Z,95728.41
2023-03-05T05:03:31.206Z,95731.19
2023-03-05T05:08:33.087Z,95723.34
2023-03-05T05:13:34.920Z,95720.56
2023-03-05T05:18:36.392Z,95707.50
2023-03-05T05:23:38.903Z,95710.88
2023-03-05T05:28:42.408Z,95714.28
2023-03-05T05:33:44.201Z,95705.06
2023-03-05T05:38:45.658Z,95704.06
2023-03-05T05:43:47.656Z,95708.28
2023-03-05T05:48:49.169Z,95705.97
2023-03-05T05:53:51.269Z,95699.88
2023-03-05T05:58:52.972Z,95707.34
2023-03-05T06:03:55.357Z,95712.16
2023-03-05T06:08:56.908Z,95704.16
2023-03-05T06:13:58.439Z,95699.78
2023-03-05T06:19:00.202Z,95695.44
2023-03-05T06:24:01.762Z,95697.31
2023-03-05T06:29:03.421Z,95696.09
2023-03-05T06:34:05.049Z,95693.94
2023-03-05T06:39:06.690Z,95681.47
2023-03-05T06:44:08.159Z,95688.47
2023-03-05T06:49:10.611Z,95681.94
2023-03-05T06:54:15.383Z,95676.72
2023-03-05T06:59:17.254Z,95677.09
2023-03-05T07:04:18.857Z,95679.28
2023-03-05T07:09:20.408Z,95682.63
2023-03-05T07:14:21.916Z,95674.19
2023-03-05T07:19:23.425Z,95680.78
2023-03-05T07:24:24.950Z,95685.53
2023-03-05T07:29:27.837Z,95688.88
2023-03-05T07:34:29.408Z,95685.56
2023-03-05T07:39:30.958Z,95685.56
2023-03-05T07:44:32.416Z,95679.13
2023-03-05T07:49:33.859Z,95670.75
2023-03-05T07:54:38.963Z,95671.00
2023-03-05T07:59:40.486Z,95672.34
2023-03-05T08:04:42.027Z,95664.72
2023-03-05T08:09:43.569Z,95663.28
2023-03-05T08:14:45.080Z,95664.97
2023-03-05T08:19:46.610Z,95657.97
2023-03-05T08:24:48.159Z,95652.00
2023-03-05T08:29:49.638Z,95652.22
2023-03-05T08:34:51.113Z,95643.03
2023-03-05T08:39:52.641Z,95643.66
2023-03-05T08:44:54.228Z,95643.53
2023-03-05T08:49:55.869Z,95639.47
2023-03-05T08:54:57.482Z,95641.97
2023-03-05T08:59:59.008Z,95648.03
2023-03-05T09:05:00.504Z,95641.91
2023-03-05T09:10:02.128Z,95637.34
2023-03-05T09:15:08.674Z,95623.94
2023-03-05T09:20:13.424Z,95625.16
2023-03-05T09:25:14.904Z,95616.72
2023-03-05T09:30:16.634Z,95608.22
2023-03-05T09:35:18.256Z,95605.97
2023-03-05T09:40:22.051Z,95602.28
2023-03-05T09:45:56.196Z,95603.03
2023-03-05T09:51:03.532Z,95598.88
2023-03-05T09:56:12.137Z,95588.22
2023-03-05T10:01:23.409Z,95591.84
2023-03-05T10:06:24.806Z,95590.31
2023-03-05T10:11:47.970Z,95581.19
2023-03-05T10:17:16.680Z,95570.38
2023-03-05T10:22:20.638Z,95574.38
2023-03-05T10:27:47.285Z,95558.94
2023-03-05T10:32:57.554Z,95558.16
2023-03-05T10:38:06.565Z,95558.50
2023-03-05T10:43:18.449Z,95544.94
2023-03-05T10:48:27.561Z,95532.50
2023-03-05T10:53:34.460Z,95537.56
2023-03-05T10:58:35.951Z,95529.81
2023-03-05T11:04:14.426Z,95518.59
2023-03-05T11:09:20.696Z,95508.97
2023-03-05T11:14:25.756Z,95508.00
2023-03-05T11:19:32.128Z,95491.59
2023-03-05T11:24:33.669Z,95494.22
2023-03-05T11:29:46.737Z,95489.97
2023-03-05T11:34:48.396Z,95479.47
2023-03-05T11:40:14.464Z,95468.41
2023-03-05T11:45:18.549Z,95459.72
2023-03-05T11:50:32.105Z,95449.91
2023-03-05T11:55:43.048Z,95438.31
2023-03-05T12:00:46.946Z,95439.88
2023-03-05T12:05:53.395Z,95438.75
2023-03-05T12:10:55.873Z,95421.31
2023-03-05T12:16:14.411Z,95419.66
2023-03-05T12:21:25.135Z,95415.78
2023-03-05T12:26:54.209Z,95414.06
2023-03-05T12:31:55.974Z,95399.72
2023-03-05T12:36:57.554Z,95394.72
2023-03-05T12:41:59.078Z,95391.91
2023-03-05T12:47:12.653Z,95385.94
2023-03-05T12:52:26.304Z,95378.44
2023-03-05T12:57:29.947Z,95366.28
2023-03-05T13:02:36.888Z,95355.97
2023-03-05T13:07:38.335Z,95349.72
2023-03-05T13:12:39.968Z,95344.06
2023-03-05T13:17:57.061Z,95340.47
2023-03-05T13:23:22.274Z,95333.56
2023-03-05T13:28:24.347Z,95322.72
2023-03-05T13:33:30.034Z,95317.19
2023-03-05T13:38:44.621Z,95311.78
2023-03-05T13:43:49.995Z,95311.78
2023-03-05T13:48:51.549Z,95308.72
2023-03-05T13:53:53.288Z,95311.63
2023-03-05T13:58:57.118Z,95295.50
2023-03-05T14:04:23.209Z,95292.78
2023-03-05T14:09:27.936Z,95285.66
2023-03-05T14:14:34.214Z,95279.75
2023-03-05T14:19:38.862Z,95286.47
2023-03-05T14:24:40.471Z,95275.13
2023-03-05T14:29:46.807Z,95259.28
2023-03-05T14:34:54.557Z,95254.13
2023-03-05T14:39:58.450Z,95251.97
2023-03-05T14:45:21.365Z,95242.22
2023-03-05T14:50:28.623Z,95250.44
2023-03-05T14:55:32.179Z,95235.78
2023-03-05T15:00:33.692Z,95230.94
2023-03-05T15:05:37.134Z,95231.03
2023-03-05T15:10:38.626Z,95218.59
2023-03-05T15:15:41.377Z,95209.41
2023-03-05T15:20:44.264Z,95206.09
2023-03-05T15:25:45.828Z,95197.69
2023-03-05T15:30:47.964Z,95187.03
2023-03-05T15:35:49.709Z,95186.38
2023-03-05T15:40:52.008Z,95185.50
2023-03-05T15:45:53.552Z,95183.06
2023-03-05T15:50:55.064Z,95176.13
2023-03-05T15:55:56.579Z,95167.75
2023-03-05T16:00:58.092Z,95170.97
2023-03-05T16:05:59.661Z,95174.56
2023-03-05T16:11:01.357Z,95171.00
2023-03-05T16:16:06.817Z,95162.72
2023-03-05T16:21:08.380Z,95163.31
2023-03-05T16:26:09.933Z,95152.97
2023-03-05T16:31:11.576Z,95150.78
2023-03-05T16:36:24.652Z,95155.09
2023-03-05T16:41:26.880Z,95146.78
2023-03-05T16:46:29.691Z,95152.88
2023-03-05T16:51:31.271Z,95144.97
2023-03-05T16:56:32.794Z,95138.88
2023-03-05T17:01:34.304Z,95149.44
2023-03-05T17:06:35.812Z,95152.03
2023-03-05T17:11:37.276Z,95147.19
2023-03-05T17:16:38.775Z,95148.66
2023-03-05T17:21:42.308Z,95151.59
2023-03-05T17:26:44.279Z,95157.34
2023-03-05T17:31:45.905Z,95149.25
2023-03-05T17:36:47.751Z,95151.63
2023-03-05T17:41:49.255Z,95150.34
2023-03-05T17:46:50.808Z,95146.50
2023-03-05T17:51:52.288Z,95155.09
2023-03-05T17:56:55.149Z,95153.69
2023-03-05T18:01:56.666Z,95155.63
2023-03-05T18:06:58.197Z,95154.75
2023-03-05T18:11:59.793Z,95149.13
2023-03-05T18:17:01.284Z,95157.25
2023-03-05T18:22:02.823Z,95149.13
2023-03-05T18:27:04.421Z,95148.78
2023-03-05T18:32:06.057Z,95144.59
2023-03-05T18:37:07.573Z,95150.09
2023-03-05T18:42:12.960Z,95141.78
2023-03-05T18:47:14.461Z,95138.28
2023-03-05T18:52:15.984Z,95134.13
2023-03-05T18:57:17.493Z,95132.41
2023-03-05T19:02:19.022Z,95125.22
2023-03-05T19:07:20.552Z,95123.28
2023-03-05T19:12:24.531Z,95108.91
2023-03-05T19:17:26.051Z,95117.66
2023-03-05T19:22:29.888Z,95112.94
2023-03-05T19:27:31.388Z,95105.34
2023-03-05T19:32:33.037Z,95107.41
2023-03-05T19:37:34.534Z,95113.22
2023-03-05T19:42:35.968Z,95104.53
2023-03-05T19:47:37.500Z,95109.03
2023-03-05T19:52:39.032Z,95105.72
2023-03-05T19:57:40.577Z,95097.41
2023-03-05T20:02:42.061Z,95099.19
2023-03-05T20:07:43.643Z,95093.84
2023-03-05T20:12:45.163Z,95093.84
2023-03-05T20:17:46.683Z,95089.03
2023-03-05T20:22:48.303Z,95085.47
2023-03-05T20:27:50.714Z,95081.69
2023-03-05T20:32:52.177Z,95083.50
2023-03-05T20:37:59.642Z,95077.69
2023-03-05T20:43:01.078Z,95076.41
2023-03-05T20:48:02.595Z,95079.56
2023-03-05T20:53:04.379Z,95078.59
2023-03-05T20:58:05.961Z,95084.97
2023-03-05T21:03:08.464Z,95075.25
2023-03-05T21:08:09.985Z,95071.88
2023-03-05T21:13:11.462Z,95066.75
2023-03-05T21:18:12.915Z,95062.16
2023-03-05T21:23:14.380Z,95060.63
2023-03-05T21:28:16.434Z,95063.72
2023-03-05T21:33:23.822Z,95049.97
2023-03-05T21:38:25.729Z,95046.84
2023-03-05T21:43:27.732Z,95042.16
2023-03-05T21:48:29.686Z,95048.66
2023-03-05T21:53:31.223Z,95043.28
2023-03-05T21:58:34.605Z,95033.88
2023-03-05T22:03:36.161Z,95037.25
2023-03-05T22:08:37.778Z,95037.00
2023-03-05T22:13:39.881Z,95039.56
2023-03-05T22:18:41.414Z,95037.81
2023-03-05T22:23:42.921Z,95032.59
2023-03-05T22:28:44.398Z,95026.25
2023-03-05T22:33:45.898Z,95034.47
2023-03-05T22:38:47.576Z,95026.66
2023-03-05T22:43:50.628Z,95015.97
2023-03-05T22:48:52.695Z,95015.28
2023-03-05T22:53:54.189Z,95008.94
2023-03-05T22:58:57.079Z,95008.81
2023-03-05T23:03:58.626Z,95002.66
2023-03-05T23:09:00.225Z,94996.41
2023-03-05T23:14:01.766Z,94992.38
2023-03-05T23:19:03.323Z,94996.63
2023-03-05T23:24:05.158Z,94985.38
2023-03-05T23:29:06.627Z,94984.66
2023-03-05T23:34:08.112Z,94982.16
2023-03-05T23:39:09.580Z,94972.03
2023-03-05T23:44:11.096Z,94960.00
2023-03-05T23:49:12.632Z,94958.34
2023-03-05T23:54:14.103Z,94966.78
2023-03-05T23:59:15.607Z,94965.59
